Kezdőlap
METAR-TAF:

METAR-TAF

Repülőterek :

Fokváros, Dél-afrikai Köztársaság

földrajzi szélesség: 33-59S, földrajzi hosszúság: 018-36E, magasság: 42 m

Jelenlegi meteorológiai megfigyelések

A jelentés 1 órával és 10 perccel ezelõtt készült, 02:00 UTC
Déli szél 6 kt
Hőmérséklet 16°C
Páratartalom 68%
Légköri nyomás 1022 hPa
Látótávolság 10 km, vagy több
felhőtlen 1500 m magasságban, és nincs gomolyfelhõ

METAR: FACT 170200Z 19006KT CAVOK 16/10 Q1022 NOSIG

Idő: 05:10 (03:10 UTC)

Előrejelzés

A jelentés 5 órával és 10 perccel ezelõtt készült, 22:00 UTC
Az előrejelzés 17-én 00 óra UTC és 18-én 06 óra UTC között érvényes
Dél-délnyugati szél 10 kt
Látótávolság 10 km, vagy több
Szórványos felhőzet 2500 lábon
17-én 0600 órától UTC szerint
Déli szél 15 kt
Látótávolság 10 km, vagy több
Kevés felhő 3000 lábon

TAF: FACT 162200Z 1700/1806 20010KT 9999 SCT025 FM170600 18015KT 9999 FEW030 TX23/1712Z TN14/1804Z

Meteorológiai megfigyelések és előrejelzések több, mint 4000 repülőtéren (METAR és TAF jelentéseket).

A térképen piros és sárga pontok jelzik az elérhető meteorológiai állomásokat.

Mozgassa az egeret a pont fölött, hogy megjelenjen az állomás neve.

Azután kattintson az időjárási megfigyelések és előrejelzések megtekintéséhez.

A térkép megváltoztatása: kattintson a fekete keresztel jelölt zöld gombra ráközelítéshez, a vonallal jelölt zöld gombra távolításhoz, vagy a zöld nyilakra a szomszédos térképek eléréséhez.


METAR-TAF: